Rechercher aéroport 
image banner adimage banner adimage banner ad
image banner ad

CL76 - U S Naval Hospital San Diego

Situé à San Diego, United States

ICAO - CL76, IATA -

Données fournies par Airmate  

Information générale

Coordonnées: N32°43'30" W117°8'39"
Élévation : 200 feet MSL.
Variation magnétique : 13° East
Voir autres Aéroports à California

Données opérationnelles

Special qualification required
Heure actuelle UTC:
Heure actuelle locale:
Météo à : KSAN - San Diego Intl ( 4 km )
METAR: KSAN 291951Z 30009KT 10SM FEW010 SCT050 SCT250 25/18 A2992 RMK AO2 SLP131 CB DSNT E T02500178
TAF: KSAN 291733Z 2918/3024 29011G18KT P6SM FEW010 SCT250 FM300300 30005KT P6SM SCT010 FM300700 VRB04KT P6SM BKN008 FM301600 VRB04KT P6SM SCT010 FM302000 29011KT P6SM FEW010 SCT150
Voir NOTAMs / SUP AIP / TFR affectant cet aéroport [VIEW]
Fréquences de communication: [VIEW]

Pistes:

Coordonnées de l'aéroport

Adresse: San Diego United States

Vue satellite de CL76